createdAt,value
2023-03-02T05:49:51.205Z,18.95
2023-03-02T05:53:08.490Z,23.70
2023-03-02T05:56:11.892Z,22.97
2023-03-02T05:59:15.359Z,25.27
2023-03-02T06:02:18.659Z,27.08
2023-03-02T06:05:24.648Z,23.60
2023-03-02T06:08:28.089Z,23.35
2023-03-02T06:11:31.646Z,21.87
2023-03-02T06:14:37.936Z,23.07
2023-03-02T06:17:44.388Z,23.98
2023-03-02T06:20:50.833Z,24.77
2023-03-02T06:23:54.026Z,27.23
2023-03-02T06:26:57.360Z,27.30
2023-03-02T06:30:02.219Z,23.23
2023-03-02T06:33:07.282Z,29.52
2023-03-02T06:36:12.711Z,27.45
2023-03-02T06:39:16.890Z,26.85
2023-03-02T06:42:23.077Z,26.17
2023-03-02T06:45:27.799Z,25.40
2023-03-02T06:48:31.400Z,27.05
2023-03-02T06:51:37.446Z,24.05
2023-03-02T06:54:44.150Z,25.30
2023-03-02T06:57:47.187Z,22.10
2023-03-02T07:00:55.405Z,31.27
2023-03-02T07:04:05.071Z,26.40
2023-03-02T07:07:09.838Z,27.52
2023-03-02T07:10:13.734Z,34.97
2023-03-02T07:13:20.246Z,27.47
2023-03-02T07:16:23.611Z,27.60
2023-03-02T07:19:27.843Z,21.95
2023-03-02T07:22:32.450Z,24.75
2023-03-02T07:25:37.293Z,32.42
2023-03-02T07:28:43.610Z,33.30
2023-03-02T07:31:46.894Z,24.03
2023-03-02T07:34:50.219Z,27.70
2023-03-02T07:37:55.749Z,23.70
2023-03-02T07:40:59.812Z,25.77
2023-03-02T07:44:02.975Z,29.10
2023-03-02T07:47:06.993Z,25.23
2023-03-02T07:50:11.518Z,28.80
2023-03-02T07:53:16.800Z,26.08
2023-03-02T07:56:20.574Z,30.17
2023-03-02T07:59:24.366Z,26.97
2023-03-02T08:02:28.607Z,27.13
2023-03-02T08:05:33.258Z,25.13
2023-03-02T08:08:38.165Z,28.85
2023-03-02T08:11:42.010Z,25.23
2023-03-02T08:14:50.031Z,28.13
2023-03-02T08:18:36.075Z,26.73
2023-03-02T08:21:46.907Z,28.27
2023-03-02T08:24:53.975Z,30.38
2023-03-02T08:28:14.167Z,27.95
2023-03-02T08:31:19.049Z,29.80
2023-03-02T08:34:22.593Z,29.17
2023-03-02T08:37:25.749Z,28.52
2023-03-02T08:40:30.271Z,30.80
2023-03-02T08:43:34.071Z,31.92
2023-03-02T08:46:37.407Z,33.47
2023-03-02T08:49:41.700Z,27.93
2023-03-02T08:52:44.954Z,32.00
2023-03-02T08:56:18.064Z,30.77
2023-03-02T08:59:21.793Z,28.08
2023-03-02T09:02:24.980Z,29.00
2023-03-02T09:05:28.931Z,30.17
2023-03-02T09:08:32.672Z,30.02
2023-03-02T09:11:38.018Z,28.83
2023-03-02T09:14:41.146Z,30.45
2023-03-02T09:17:45.201Z,34.23
2023-03-02T09:20:59.950Z,28.97
2023-03-02T09:24:04.417Z,29.25
2023-03-02T09:27:09.010Z,29.25
2023-03-02T09:30:25.087Z,28.77
2023-03-02T09:33:41.277Z,26.03
2023-03-02T09:36:44.437Z,28.23
2023-03-02T09:39:48.524Z,28.23
2023-03-02T09:43:22.650Z,30.10
2023-03-02T09:46:31.268Z,26.73
2023-03-02T09:49:55.117Z,27.83
2023-03-02T09:53:29.624Z,26.63
2023-03-02T09:56:44.790Z,27.25
2023-03-02T10:00:01.755Z,26.17
2023-03-02T10:03:18.610Z,31.15
2023-03-02T10:06:22.127Z,27.23
2023-03-02T10:09:26.276Z,27.67
2023-03-02T10:12:48.809Z,27.80
2023-03-02T10:16:11.826Z,27.95
2023-03-02T10:19:25.033Z,27.33
2023-03-02T10:22:34.489Z,28.07
2023-03-02T10:25:44.744Z,25.27
2023-03-02T10:28:50.912Z,27.23
2023-03-02T10:32:01.889Z,26.10
2023-03-02T10:35:15.361Z,25.20
2023-03-02T10:38:23.883Z,26.60
2023-03-02T10:41:31.900Z,28.90
2023-03-02T10:44:48.561Z,21.85
2023-03-02T10:48:11.656Z,22.48
2023-03-02T10:51:46.078Z,25.70
2023-03-02T10:55:16.969Z,24.00
2023-03-02T10:58:35.711Z,25.60
2023-03-02T11:01:39.023Z,25.73
2023-03-02T11:04:43.754Z,21.05
2023-03-02T11:07:53.674Z,22.58
2023-03-02T11:11:00.837Z,23.13
2023-03-02T11:14:16.991Z,23.07
2023-03-02T11:17:34.049Z,24.83
2023-03-02T11:20:42.191Z,26.48
2023-03-02T11:23:57.246Z,22.95
2023-03-02T11:27:08.701Z,24.17
2023-03-02T11:30:17.029Z,21.73
2023-03-02T11:33:25.379Z,21.77
2023-03-02T11:36:41.176Z,22.35
2023-03-02T11:40:05.418Z,24.38
2023-03-02T11:43:12.266Z,25.57
2023-03-02T11:46:26.427Z,21.47
2023-03-02T11:49:45.060Z,27.15
2023-03-02T11:53:03.462Z,27.52
2023-03-02T11:56:08.687Z,25.75
2023-03-02T11:59:21.882Z,25.07
2023-03-02T12:02:57.100Z,23.87
2023-03-02T12:06:52.589Z,24.35
2023-03-02T12:10:31.301Z,26.70
2023-03-02T12:13:37.394Z,21.52
2023-03-02T12:16:42.426Z,27.57
2023-03-02T12:19:46.371Z,31.17
2023-03-02T12:22:50.255Z,32.25
2023-03-02T12:26:07.839Z,23.80
2023-03-02T12:29:26.653Z,23.52
2023-03-02T12:32:32.524Z,21.63
2023-03-02T12:35:36.347Z,26.87
2023-03-02T12:38:45.582Z,24.38
2023-03-02T12:42:11.257Z,23.88
2023-03-02T12:45:28.310Z,22.52
2023-03-02T12:48:44.248Z,24.13
2023-03-02T12:51:54.192Z,26.57
2023-03-02T12:55:01.969Z,22.25
2023-03-02T12:58:21.093Z,19.25
2023-03-02T13:01:26.719Z,20.90
2023-03-02T13:04:30.367Z,16.73
2023-03-02T13:07:38.663Z,16.00
2023-03-02T13:10:43.976Z,19.25
2023-03-02T13:13:50.025Z,18.70
2023-03-02T13:17:02.968Z,21.15
2023-03-02T13:20:07.616Z,17.27
2023-03-02T13:23:14.153Z,15.37
2023-03-02T13:26:29.983Z,17.50
2023-03-02T13:29:38.093Z,19.10
2023-03-02T13:32:43.532Z,23.58
2023-03-02T13:35:48.908Z,21.73
2023-03-02T13:38:54.804Z,18.47
2023-03-02T13:41:59.730Z,20.95
2023-03-02T13:45:22.346Z,17.10
2023-03-02T13:48:27.803Z,15.27
2023-03-02T13:51:35.155Z,21.03
2023-03-02T13:54:39.149Z,16.93
2023-03-02T13:57:47.307Z,16.00
2023-03-02T14:00:52.819Z,19.02
2023-03-02T14:03:57.408Z,18.33
2023-03-02T14:07:00.700Z,18.47
2023-03-02T14:10:05.862Z,16.60
2023-03-02T14:13:30.060Z,17.35
2023-03-02T14:16:36.205Z,18.75
2023-03-02T14:19:39.466Z,17.40
2023-03-02T14:22:44.577Z,24.27
2023-03-02T14:25:47.942Z,23.07
2023-03-02T14:29:04.578Z,18.65
2023-03-02T14:32:12.142Z,29.05
2023-03-02T14:35:17.911Z,20.15
2023-03-02T14:38:22.212Z,21.67
2023-03-02T14:41:26.238Z,20.43
2023-03-02T14:44:29.310Z,17.77
2023-03-02T14:47:33.807Z,19.13
2023-03-02T14:50:44.080Z,24.88
2023-03-02T14:53:51.752Z,20.83
2023-03-02T14:56:55.045Z,30.73
2023-03-02T14:59:59.876Z,26.17
2023-03-02T15:03:07.092Z,19.42
2023-03-02T15:06:26.671Z,19.05
2023-03-02T15:09:30.097Z,20.00
2023-03-02T15:12:46.537Z,18.57
2023-03-02T15:15:50.152Z,23.50
2023-03-02T15:18:57.725Z,22.20
2023-03-02T15:22:02.322Z,20.83
2023-03-02T15:25:06.105Z,23.40
2023-03-02T15:28:09.314Z,20.57
2023-03-02T15:31:15.044Z,18.17
2023-03-02T15:34:19.659Z,21.17
2023-03-02T15:37:22.971Z,22.77
2023-03-02T15:40:26.620Z,21.27
2023-03-02T15:43:30.000Z,20.23
2023-03-02T15:46:33.220Z,18.00
